Tuesday, October 17, 2017, 2:51 PM EDT
Back to Local

KFMH, Otis Air National Guard Base

Location: Mashpee, MA, United States Lat: 41.65
Local Time: 2:51 PM EDT (18:51 GMT) Lon: -70.517
Time Zone: US/Eastern Elev: 131 ft

Show me the last for .
Show Decoded

2017-10-17 14:35 METAR KFMH 171835Z AUTO 05006KT 10SM CLR 12/02 A3026 RMK AO2 FZRANO =
2017-10-17 14:15 METAR KFMH 171815Z AUTO 05007KT 10SM CLR 12/03 A3026 RMK AO2 FZRANO =
2017-10-17 13:55 METAR KFMH 171755Z AUTO VRB03G12KT 10SM CLR 11/02 A3026 RMK AO2 FZRANO =
2017-10-17 13:35 METAR KFMH 171735Z AUTO 05006G12KT 10SM CLR 12/03 A3026 RMK AO2 FZRANO =
2017-10-17 13:15 METAR KFMH 171715Z AUTO 05009KT 10SM FEW034 12/03 A3027 RMK AO2 FZRANO =
2017-10-17 12:55 METAR KFMH 171655Z AUTO 03007G12KT 360V060 10SM FEW032 11/03 A3027 RMK AO2
                 FZRANO =
2017-10-17 12:35 METAR KFMH 171635Z AUTO 04010KT 10SM BKN030 11/03 A3027 RMK AO2 FZRANO =
2017-10-17 12:15 METAR KFMH 171615Z AUTO 02007KT 10SM BKN030 BKN034 11/03 A3028 RMK AO2 FZRANO =
2017-10-17 11:55 METAR KFMH 171555Z 36011KT 10SM BKN031 11/03 A3028 RMK AO2 FZRANO =
2017-10-17 11:35 METAR KFMH 171535Z 01009KT 10SM BKN031 10/03 A3028 RMK AO2 FZRANO =
2017-10-17 11:15 METAR KFMH 171515Z 01007G15KT 340V040 10SM BKN031 10/04 A3028 RMK AO2 FZRANO =
2017-10-17 10:55 METAR KFMH 171455Z AUTO 35008G15KT 320V020 10SM BKN034 10/03 A3028 RMK AO2
                 FZRANO =
2017-10-17 10:35 METAR KFMH 171435Z AUTO 33009KT 10SM BKN036 11/04 A3028 RMK AO2 FZRANO =
2017-10-17 10:15 METAR KFMH 171415Z AUTO 36011KT 330V040 10SM FEW029 10/02 A3028 RMK AO2 FZRANO =
2017-10-17 09:55 METAR KFMH 171355Z AUTO 34010KT 10SM CLR 10/03 A3028 RMK AO2 FZRANO =
2017-10-17 09:35 METAR KFMH 171335Z AUTO VRB06G12KT 10SM CLR 09/04 A3028 RMK AO2 FZRANO =
2017-10-17 09:15 METAR KFMH 171315Z AUTO 35008KT 10SM CLR 08/04 A3028 RMK AO2 FZRANO =
2017-10-17 08:55 METAR KFMH 171255Z AUTO 33007KT 10SM CLR 08/03 A3027 RMK AO2 FZRANO =
2017-10-17 08:35 METAR KFMH 171235Z AUTO 33006KT 10SM CLR 06/03 A3027 RMK AO2 FZRANO =
2017-10-17 08:15 METAR KFMH 171215Z AUTO 34007KT 10SM CLR 05/02 A3027 RMK AO2 FZRANO =
2017-10-17 07:55 METAR KFMH 171155Z AUTO 34006KT 10SM CLR 05/02 A3026 RMK AO2 FZRANO =
2017-10-17 07:35 METAR KFMH 171135Z AUTO 33006KT 10SM CLR 05/02 A3024 RMK AO2 FZRANO =
2017-10-17 07:15 METAR KFMH 171115Z AUTO 33007KT 10SM FEW033 04/02 A3024 RMK AO2 FZRANO =
2017-10-17 06:55 METAR KFMH 171055Z AUTO 33007KT 10SM SCT032 04/02 A3023 RMK AO2 FZRANO =
2017-10-17 06:35 METAR KFMH 171035Z AUTO 33008KT 10SM SCT029 BKN035 04/02 A3022 RMK AO2 FZRANO =
2017-10-17 06:15 METAR KFMH 171015Z AUTO 33009KT 10SM SCT028 SCT034 05/02 A3022 RMK AO2 FZRANO =
2017-10-17 05:55 METAR KFMH 170955Z AUTO 32008KT 10SM BKN027 05/01 A3021 RMK AO2 FZRANO =
2017-10-17 05:35 METAR KFMH 170935Z AUTO 32008KT 10SM BKN028 BKN033 05/01 A3021 RMK AO2 FZRANO =
2017-10-17 05:15 METAR KFMH 170915Z AUTO 32007G13KT 10SM BKN030 BKN034 05/01 A3020 RMK AO2 FZRANO
                 =
2017-10-17 04:55 METAR KFMH 170855Z AUTO 32008KT 10SM SCT029 BKN034 04/01 A3020 RMK AO2 FZRANO =
2017-10-17 04:35 METAR KFMH 170835Z AUTO 32007KT 10SM BKN029 04/01 A3019 RMK AO2 FZRANO =
2017-10-17 04:15 METAR KFMH 170815Z AUTO 31006KT 10SM BKN028 05/01 A3018 RMK AO2 FZRANO =
2017-10-17 03:55 METAR KFMH 170755Z AUTO 31007G13KT 10SM BKN028 BKN033 05/01 A3017 RMK AO2 FZRANO
                 =
2017-10-17 03:35 METAR KFMH 170735Z AUTO 32010KT 10SM OVC028 05/01 A3017 RMK AO2 FZRANO =
2017-10-17 03:15 METAR KFMH 170715Z AUTO 32010KT 10SM BKN025 05/01 A3016 RMK AO2 FZRANO =
2017-10-17 02:55 METAR KFMH 170655Z AUTO 32009KT 10SM BKN024 BKN028 05/01 A3015 RMK AO2 FZRANO =
2017-10-17 02:35 METAR KFMH 170635Z AUTO 32007KT 10SM BKN026 06/01 A3015 RMK AO2 FZRANO =
2017-10-17 02:15 METAR KFMH 170615Z AUTO 32007G13KT 10SM BKN026 06/01 A3015 RMK AO2 FZRANO =
2017-10-17 01:55 METAR KFMH 170555Z AUTO 33007KT 10SM BKN027 06/01 A3015 RMK AO2 FZRANO =
2017-10-17 01:35 METAR KFMH 170535Z AUTO 33006KT 10SM FEW025 SCT030 06/01 A3014 RMK AO2 FZRANO =
2017-10-17 01:15 METAR KFMH 170515Z AUTO 33007KT 10SM CLR 07/01 A3014 RMK AO2 FZRANO =
2017-10-17 00:55 METAR KFMH 170455Z AUTO 34008G15KT 10SM SCT060 07/01 A3014 RMK AO2 FZRANO =
2017-10-17 00:35 METAR KFMH 170435Z AUTO 34009G15KT 10SM OVC060 08/01 A3014 RMK AO2 FZRANO =
2017-10-16 23:55 METAR KFMH 170355Z AUTO 34012KT 10SM OVC055 08/01 A3013 RMK AO2 FZRANO =
2017-10-16 23:35 METAR KFMH 170335Z AUTO 33010G16KT 10SM OVC055 09/01 A3013 RMK AO2 FZRANO =
2017-10-16 23:15 METAR KFMH 170315Z AUTO 34011G18KT 320V020 10SM OVC055 09/01 A3012 RMK AO2
                 FZRANO =
2017-10-16 22:55 METAR KFMH 170255Z AUTO 34007G12KT 10SM OVC050 09/02 A3012 RMK AO2 FZRANO =
2017-10-16 22:35 METAR KFMH 170235Z AUTO 35010G15KT 10SM FEW042 OVC050 10/02 A3011 RMK AO2 FZRANO
                 =
2017-10-16 22:15 METAR KFMH 170215Z AUTO 35007G12KT 10SM SCT041 OVC050 10/03 A3010 RMK AO2 FZRANO
                 =
2017-10-16 21:55 METAR KFMH 170155Z AUTO 34006KT 10SM BKN038 OVC048 10/04 A3010 RMK AO2 FZRANO =
2017-10-16 21:35 METAR KFMH 170135Z AUTO 33007KT 10SM OVC038 10/04 A3009 RMK AO2 FZRANO =
2017-10-16 21:15 METAR KFMH 170115Z AUTO 32008G14KT 10SM OVC039 10/04 A3008 RMK AO2 FZRANO =
2017-10-16 20:55 METAR KFMH 170055Z AUTO 32009G15KT 10SM OVC038 10/04 A3007 RMK AO2 FZRANO =
2017-10-16 20:35 METAR KFMH 170035Z AUTO 31007KT 10SM OVC037 10/04 A3006 RMK AO2 FZRANO =
2017-10-16 20:15 METAR KFMH 170015Z AUTO 33008KT 10SM OVC036 10/04 A3005 RMK AO2 FZRANO =
2017-10-16 19:55 METAR KFMH 162355Z AUTO 33007KT 10SM BKN036 OVC060 11/04 A3005 RMK AO2 FZRANO =
2017-10-16 19:35 METAR KFMH 162335Z AUTO 34007KT 10SM FEW035 SCT050 OVC055 11/05 A3005 RMK AO2
                 FZRANO =
2017-10-16 19:15 METAR KFMH 162315Z AUTO 33007KT 10SM FEW036 BKN048 OVC055 11/05 A3004 RMK AO2
                 FZRANO =
2017-10-16 18:55 METAR KFMH 162255Z AUTO 32005KT 10SM OVC047 11/05 A3003 RMK AO2 FZRANO =
2017-10-16 18:35 METAR KFMH 162235Z AUTO 33007G13KT 10SM OVC045 11/05 A3002 RMK AO2 FZRANO =
2017-10-16 18:15 METAR KFMH 162215Z AUTO 33006KT 10SM OVC044 11/05 A3001 RMK AO2 FZRANO =
2017-10-16 17:55 METAR KFMH 162155Z AUTO 35007KT 10SM OVC043 11/05 A2999 RMK AO2 FZRANO =
2017-10-16 17:35 METAR KFMH 162135Z AUTO 35006G15KT 10SM OVC042 11/05 A2998 RMK AO2 FZRANO =
2017-10-16 17:15 METAR KFMH 162115Z AUTO 33007G12KT 10SM BKN041 11/06 A2999 RMK AO2 FZRANO =
2017-10-16 16:55 METAR KFMH 162055Z AUTO 35006KT 10SM SCT038 12/06 A2998 RMK AO2 FZRANO =
2017-10-16 16:35 METAR KFMH 162035Z AUTO VRB06G12KT 10SM OVC037 12/06 A2997 RMK AO2 FZRANO =
2017-10-16 16:15 METAR KFMH 162015Z AUTO 36007G13KT 340V040 10SM OVC036 12/06 A2996 RMK AO2
                 FZRANO =
2017-10-16 15:55 METAR KFMH 161955Z AUTO 01010KT 10SM BKN034 13/06 A2995 RMK AO2 FZRANO =
2017-10-16 15:35 METAR KFMH 161935Z AUTO 02009G15KT 10SM BKN032 BKN039 13/07 A2992 RMK AO2 FZRANO
                 =
2017-10-16 15:15 METAR KFMH 161915Z AUTO 01010KT 10SM OVC032 13/07 A2994 RMK AO2 FZRANO =

Support USWX by starting your Amazon purchase here.